Time;durP1;ratioP1;P1;durP2;ratioP2;P2;SDS_P1;SDS_P2;PMS_P1;PMS_P2;Temp;Humidity;BMP_temperature;BMP_pressure;BME280_temperature;BME280_humidity;BME280_pressure;Samples;Min_cycle;Max_cycle;Signal;HPM_P1;HPM_P2
2022/06/04 00:00:39;;;;;;;9.02;2.60;;;14.30;99.90;;;;;;5035351;28;20402;-81
2022/06/04 00:03:06;;;;;;;10.60;3.60;;;14.30;99.90;;;;;;5053320;28;20021;-82
2022/06/04 00:05:37;;;;;;;8.20;2.53;;;14.30;99.90;;;;;;5036254;28;20070;-82
2022/06/04 00:08:04;;;;;;;6.53;2.58;;;14.30;99.90;;;;;;5035375;28;20436;-82
2022/06/04 00:16:06;;;;;;;13.77;2.92;;;14.20;99.90;;;;;;5053179;28;20402;-82
2022/06/04 00:18:32;;;;;;;12.15;2.55;;;14.20;99.90;;;;;;5053248;28;20033;-81
2022/06/04 00:20:58;;;;;;;4.13;2.72;;;14.20;99.90;;;;;;5052837;28;20036;-81
2022/06/04 00:23:26;;;;;;;5.25;2.40;;;14.20;99.90;;;;;;5052862;28;20028;-82
2022/06/04 00:25:54;;;;;;;8.73;2.50;;;14.20;99.90;;;;;;5052996;28;20021;-81
2022/06/04 00:28:22;;;;;;;6.35;2.55;;;14.20;99.90;;;;;;5035035;28;20025;-81
2022/06/04 00:30:48;;;;;;;8.55;2.70;;;14.20;99.90;;;;;;5052797;28;20029;-81
2022/06/04 00:33:15;;;;;;;11.15;2.63;;;14.20;99.90;;;;;;5035150;28;20032;-81
2022/06/04 00:35:42;;;;;;;9.63;2.17;;;14.20;99.90;;;;;;5052732;28;20029;-81
2022/06/04 00:38:09;;;;;;;11.07;2.63;;;14.20;99.90;;;;;;5052641;28;20074;-81
2022/06/04 00:40:43;;;;;;;10.00;2.80;;;14.20;99.90;;;;;;5052789;28;20115;-81
2022/06/04 00:43:10;;;;;;;4.68;2.55;;;14.30;99.90;;;;;;5052679;28;20021;-81
2022/06/04 00:45:35;;;;;;;8.18;2.72;;;14.30;99.90;;;;;;5034592;28;20533;-81
2022/06/04 00:48:07;;;;;;;9.45;3.35;;;14.30;99.90;;;;;;5052477;28;20108;-81
2022/06/04 00:50:37;;;;;;;12.55;3.22;;;14.20;99.90;;;;;;5052785;28;20063;-81
2022/06/04 00:53:07;;;;;;;6.82;2.50;;;14.20;99.90;;;;;;5052233;28;20025;-81
2022/06/04 00:56:03;;;;;;;10.82;2.97;;;14.20;99.90;;;;;;5052311;28;20029;-81
2022/06/04 00:58:31;;;;;;;7.28;3.05;;;14.20;99.90;;;;;;5025253;28;20029;-81
2022/06/04 01:01:09;;;;;;;6.95;2.78;;;14.20;99.90;;;;;;5051634;28;20032;-81
2022/06/04 01:04:01;;;;;;;11.75;2.75;;;14.20;99.90;;;;;;5052399;28;20024;-80
2022/06/04 01:06:36;;;;;;;8.85;3.80;;;14.20;99.90;;;;;;5063879;22;20060;-83
2022/06/04 01:09:18;;;;;;;10.82;3.05;;;14.20;99.90;;;;;;4992893;28;20227;-83
2022/06/04 01:12:11;;;;;;;;;;;14.20;99.90;;;;;;4975859;28;20026;-82
2022/06/04 01:15:01;;;;;;;5.25;2.30;;;14.20;99.90;;;;;;4991607;28;19911;-84
2022/06/04 01:17:45;;;;;;;8.48;3.17;;;14.20;99.90;;;;;;4988487;28;20383;-83
2022/06/04 01:20:40;;;;;;;13.13;3.10;;;14.20;99.90;;;;;;4992802;28;20026;-83
2022/06/04 01:23:28;;;;;;;8.85;2.60;;;14.20;99.90;;;;;;4973705;28;20034;-82
2022/06/04 01:26:16;;;;;;;8.50;3.00;;;14.20;99.90;;;;;;4975381;28;20052;-83
2022/06/04 01:29:05;;;;;;;10.50;3.08;;;14.20;99.90;;;;;;4970226;28;20054;-85
2022/06/04 01:31:39;;;;;;;9.65;2.72;;;14.20;99.90;;;;;;4991160;28;20022;-84
2022/06/04 01:34:10;;;;;;;9.93;2.50;;;14.20;99.90;;;;;;4975373;28;20033;-83
2022/06/04 01:36:45;;;;;;;10.68;3.75;;;14.20;99.90;;;;;;4974917;28;20065;-84
2022/06/04 01:39:18;;;;;;;5.05;2.45;;;14.10;99.90;;;;;;4975266;28;20022;-84
2022/06/04 01:41:50;;;;;;;10.25;3.70;;;14.20;99.90;;;;;;4992472;28;20388;-83
2022/06/04 01:44:33;;;;;;;6.72;2.72;;;14.20;99.90;;;;;;4975247;28;20503;-83
2022/06/04 01:47:04;;;;;;;8.00;3.35;;;14.20;99.90;;;;;;5005414;28;20061;-83
2022/06/04 01:49:52;;;;;;;6.68;2.30;;;14.20;99.90;;;;;;5011951;28;20034;-84
2022/06/04 01:52:36;;;;;;;12.13;3.50;;;14.20;99.90;;;;;;5011756;28;20025;-82
2022/06/04 01:55:24;;;;;;;6.65;2.75;;;14.20;99.90;;;;;;4994474;28;20080;-83
2022/06/04 01:58:00;;;;;;;7.40;3.22;;;14.20;99.90;;;;;;4994334;28;20483;-83
2022/06/04 02:00:48;;;;;;;12.68;3.60;;;14.20;99.90;;;;;;5012157;28;20030;-83
2022/06/04 02:03:40;;;;;;;8.32;2.97;;;14.20;99.90;;;;;;5011485;28;20129;-83
2022/06/04 02:06:11;;;;;;;8.02;3.28;;;14.10;99.90;;;;;;5011732;28;20045;-83
2022/06/04 02:09:12;;;;;;;7.70;2.95;;;14.20;99.90;;;;;;5012025;28;20030;-84
2022/06/04 02:11:43;;;;;;;9.65;2.40;;;14.10;99.90;;;;;;5014326;28;20100;-83
2022/06/04 02:14:09;;;;;;;9.68;2.88;;;14.10;99.90;;;;;;4998389;28;20032;-83
2022/06/04 02:16:47;;;;;;;6.82;2.67;;;14.20;99.90;;;;;;4997915;28;20061;-83
2022/06/04 02:19:13;;;;;;;9.27;2.53;;;14.20;99.90;;;;;;4997991;28;20044;-83
2022/06/04 02:21:39;;;;;;;11.85;3.35;;;14.20;99.90;;;;;;4997992;28;20041;-82
2022/06/04 02:24:05;;;;;;;8.02;2.65;;;14.20;99.90;;;;;;5015605;28;20396;-84
2022/06/04 02:26:32;;;;;;;12.40;3.05;;;14.10;99.90;;;;;;4997808;28;20113;-83
2022/06/04 02:28:59;;;;;;;10.57;2.95;;;14.10;99.90;;;;;;4997726;28;20030;-83
2022/06/04 02:31:42;;;;;;;10.80;3.20;;;14.20;99.90;;;;;;5015355;28;20033;-83
2022/06/04 02:34:18;;;;;;;11.40;3.50;;;14.20;99.90;;;;;;5015521;28;20029;-83
2022/06/04 02:37:04;;;;;;;8.88;2.70;;;14.10;99.90;;;;;;4997339;28;20022;-84
2022/06/04 02:40:02;;;;;;;10.55;2.78;;;14.20;99.90;;;;;;4997429;28;20029;-84
2022/06/04 02:42:34;;;;;;;8.98;2.67;;;14.20;99.90;;;;;;5002081;28;20045;-83
2022/06/04 02:45:06;;;;;;;5.40;2.60;;;14.20;99.90;;;;;;5015486;28;20022;-83
2022/06/04 02:47:49;;;;;;;14.73;3.55;;;14.20;99.90;;;;;;5015201;28;20104;-83
2022/06/04 02:50:36;;;;;;;5.78;2.20;;;14.20;99.90;;;;;;4997340;28;20042;-84
2022/06/04 02:53:04;;;;;;;4.68;2.40;;;14.20;99.90;;;;;;5014721;28;20061;-84
2022/06/04 02:55:34;;;;;;;5.93;2.70;;;14.20;99.90;;;;;;4997328;28;20033;-82
2022/06/04 02:58:07;;;;;;;8.05;2.60;;;14.20;99.90;;;;;;5014893;28;20068;-83
2022/06/04 03:00:34;;;;;;;4.60;2.88;;;14.20;99.90;;;;;;5014801;28;20022;-83
2022/06/04 03:02:59;;;;;;;6.88;2.55;;;14.20;99.90;;;;;;5015128;28;20038;-83
2022/06/04 03:05:27;;;;;;;7.40;2.65;;;14.20;99.90;;;;;;5014597;28;20437;-83
2022/06/04 03:07:58;;;;;;;9.82;2.80;;;14.20;99.90;;;;;;5014291;28;20506;-83
2022/06/04 03:10:33;;;;;;;15.55;3.33;;;14.20;99.90;;;;;;4997054;28;20487;-83
2022/06/04 03:12:59;;;;;;;8.98;2.85;;;14.20;99.90;;;;;;4997090;28;20018;-84
2022/06/04 03:15:26;;;;;;;6.63;2.55;;;14.20;99.90;;;;;;4996980;28;20083;-83
2022/06/04 03:17:52;;;;;;;7.25;3.28;;;14.20;99.90;;;;;;4996954;28;20022;-84
2022/06/04 03:20:22;;;;;;;9.70;2.85;;;14.20;99.90;;;;;;4997231;28;20033;-84
2022/06/04 03:22:49;;;;;;;13.75;3.30;;;14.20;99.90;;;;;;5013546;28;20030;-83
2022/06/04 03:25:15;;;;;;;5.68;3.30;;;14.20;99.90;;;;;;4996971;28;20036;-83
2022/06/04 03:27:41;;;;;;;8.40;3.45;;;14.20;99.90;;;;;;4997176;28;20364;-83
2022/06/04 03:30:08;;;;;;;7.13;2.90;;;14.20;99.90;;;;;;5014353;28;20543;-82
2022/06/04 03:32:33;;;;;;;9.30;3.33;;;14.20;99.90;;;;;;5014237;28;20535;-82
2022/06/04 03:34:59;;;;;;;12.73;3.60;;;14.10;99.90;;;;;;4996738;28;20026;-83
2022/06/04 03:37:25;;;;;;;8.68;3.80;;;14.00;99.90;;;;;;5014428;28;20379;-83
2022/06/04 03:39:51;;;;;;;8.57;4.05;;;14.00;99.90;;;;;;4996564;28;20026;-84
2022/06/04 03:42:16;;;;;;;9.38;3.60;;;13.80;99.90;;;;;;4996820;28;20030;-86
2022/06/04 03:44:46;;;;;;;9.27;3.63;;;13.80;99.90;;;;;;4997020;28;20033;-85
2022/06/04 03:47:13;;;;;;;13.30;4.05;;;13.80;99.90;;;;;;4982056;28;20121;-83
2022/06/04 03:49:38;;;;;;;10.65;4.22;;;13.70;99.90;;;;;;4977137;28;20081;-84
2022/06/04 03:52:05;;;;;;;11.85;3.60;;;13.70;99.90;;;;;;4994283;28;20054;-85
2022/06/04 03:59:59;;;;;;;9.88;3.22;;;13.60;99.90;;;;;;4994615;28;20033;-84
2022/06/04 04:02:25;;;;;;;8.30;3.67;;;13.60;99.90;;;;;;4976915;28;20402;-85
2022/06/04 04:04:51;;;;;;;11.85;4.00;;;13.60;99.90;;;;;;4994820;28;20046;-86
2022/06/04 04:07:16;;;;;;;13.13;4.47;;;13.60;99.90;;;;;;4993470;28;20154;-85
2022/06/04 04:09:42;;;;;;;12.95;3.70;;;13.60;99.90;;;;;;4993238;28;20515;-84
2022/06/04 04:12:08;;;;;;;12.85;4.10;;;13.60;99.90;;;;;;4976765;28;20030;-84
2022/06/04 04:14:34;;;;;;;8.90;3.45;;;13.70;99.90;;;;;;4992696;28;20435;-84
2022/06/04 04:16:59;;;;;;;10.98;3.90;;;13.60;99.90;;;;;;5005788;28;20062;-84
2022/06/04 04:19:28;;;;;;;14.18;4.32;;;13.60;99.90;;;;;;4996013;28;20120;-84
2022/06/04 04:21:54;;;;;;;10.95;3.75;;;13.60;99.90;;;;;;4995604;28;20026;-84
2022/06/04 04:24:20;;;;;;;8.70;4.25;;;13.50;99.90;;;;;;4996232;28;20036;-84
2022/06/04 04:26:46;;;;;;;10.32;4.50;;;13.60;99.90;;;;;;4995855;28;20022;-84
2022/06/04 04:29:12;;;;;;;10.50;4.28;;;13.60;99.90;;;;;;4995573;28;20042;-83
2022/06/04 04:31:38;;;;;;;10.90;4.13;;;13.60;99.90;;;;;;5013266;28;20026;-86
2022/06/04 04:34:04;;;;;;;9.50;4.18;;;13.60;99.90;;;;;;4995534;28;20061;-83
2022/06/04 04:36:31;;;;;;;11.15;3.88;;;13.70;99.90;;;;;;4996066;28;20109;-83
2022/06/04 04:38:57;;;;;;;11.65;4.00;;;13.60;99.90;;;;;;5013290;28;20026;-83
2022/06/04 04:41:24;;;;;;;14.82;4.18;;;13.60;99.90;;;;;;5013233;28;20112;-83
2022/06/04 04:43:51;;;;;;;7.90;4.00;;;13.70;99.90;;;;;;5013324;28;20101;-87
2022/06/04 04:46:17;;;;;;;11.43;4.47;;;13.60;99.90;;;;;;4996131;28;20108;-84
2022/06/04 04:48:44;;;;;;;16.95;4.65;;;13.60;99.90;;;;;;4995667;28;20062;-85
2022/06/04 04:51:13;;;;;;;7.22;3.83;;;13.70;99.90;;;;;;4995469;28;20073;-86
2022/06/04 04:53:39;;;;;;;14.82;4.45;;;13.60;99.90;;;;;;4995595;28;20021;-87
2022/06/04 04:56:05;;;;;;;11.68;3.85;;;13.60;99.90;;;;;;4995565;28;20048;-85
2022/06/04 04:58:31;;;;;;;8.07;3.72;;;13.60;99.90;;;;;;4995503;28;20026;-86
2022/06/04 05:00:56;;;;;;;7.68;4.45;;;13.60;99.90;;;;;;5012845;28;20072;-86
2022/06/04 05:03:22;;;;;;;9.23;3.67;;;13.60;99.90;;;;;;4995386;28;20026;-86
2022/06/04 05:06:02;;;;;;;10.25;3.75;;;13.60;99.90;;;;;;4995154;28;20490;-85
2022/06/04 05:08:28;;;;;;;9.50;4.18;;;13.60;99.90;;;;;;4994835;28;20038;-85
2022/06/04 05:10:54;;;;;;;12.85;4.63;;;13.60;99.90;;;;;;4995536;28;20033;-85
2022/06/04 05:13:20;;;;;;;10.18;4.05;;;13.60;99.90;;;;;;4995945;28;20026;-88
2022/06/04 05:15:46;;;;;;;9.60;4.15;;;13.60;99.90;;;;;;4993705;28;20033;-90
2022/06/04 05:18:12;;;;;;;11.35;4.55;;;13.50;99.90;;;;;;4977460;28;20420;-90
2022/06/04 05:20:41;;;;;;;9.43;4.63;;;13.40;99.90;;;;;;4993486;28;20034;-90
2022/06/04 05:23:07;;;;;;;8.13;5.10;;;13.40;99.90;;;;;;4977176;28;20045;-91
2022/06/04 05:25:33;;;;;;;12.45;4.50;;;13.30;99.90;;;;;;4977337;28;20037;-90
2022/06/04 05:27:58;;;;;;;9.38;4.65;;;13.30;99.90;;;;;;4977442;28;20022;-92
2022/06/04 05:30:24;;;;;;;17.38;5.65;;;13.30;99.90;;;;;;4994931;28;20554;-93
2022/06/04 05:32:50;;;;;;;9.45;5.15;;;13.20;99.90;;;;;;4996659;28;20027;-93
2022/06/04 05:35:16;;;;;;;15.05;5.22;;;13.20;99.90;;;;;;4996208;28;20038;-93
2022/06/04 05:37:41;;;;;;;10.90;5.55;;;13.20;99.90;;;;;;5044957;23;20060;-80
2022/06/04 05:40:08;;;;;;;11.32;5.57;;;13.10;99.90;;;;;;5051886;28;20033;-80
2022/06/04 05:42:34;;;;;;;9.93;5.28;;;13.10;99.90;;;;;;5051838;28;20544;-80
2022/06/04 05:45:00;;;;;;;13.35;5.78;;;13.10;99.90;;;;;;5033843;28;20115;-80
2022/06/04 05:47:26;;;;;;;11.20;5.95;;;13.10;99.90;;;;;;5051155;28;20024;-80
2022/06/04 05:49:52;;;;;;;12.77;6.03;;;13.10;99.90;;;;;;5051774;28;20068;-80
2022/06/04 05:52:17;;;;;;;10.95;5.10;;;13.10;99.90;;;;;;5051441;28;20056;-79
2022/06/04 05:54:44;;;;;;;16.27;6.50;;;13.20;99.90;;;;;;5051642;28;20033;-79
2022/06/04 05:57:10;;;;;;;14.88;6.20;;;13.10;99.90;;;;;;5051171;28;20057;-79
2022/06/04 05:59:35;;;;;;;10.35;5.75;;;13.20;99.90;;;;;;5051520;28;20055;-79
2022/06/04 06:02:02;;;;;;;14.02;6.95;;;13.10;99.90;;;;;;5051598;28;20032;-79
2022/06/04 06:04:27;;;;;;;15.98;6.35;;;13.10;99.90;;;;;;5033714;28;20056;-80
2022/06/04 06:06:54;;;;;;;13.77;5.60;;;13.10;99.90;;;;;;5033388;28;20063;-79
2022/06/04 06:09:22;;;;;;;21.35;6.95;;;13.20;99.90;;;;;;5051258;28;20032;-79
2022/06/04 06:11:49;;;;;;;10.70;5.65;;;13.20;99.90;;;;;;5051225;28;20367;-79
2022/06/04 06:14:16;;;;;;;12.30;5.95;;;13.20;99.90;;;;;;5051648;28;20037;-80
2022/06/04 06:16:46;;;;;;;13.05;5.88;;;13.20;99.90;;;;;;5051468;28;20049;-79
2022/06/04 06:19:14;;;;;;;14.45;5.47;;;13.20;99.90;;;;;;5051346;28;20028;-80
2022/06/04 06:21:41;;;;;;;16.63;7.47;;;13.20;99.90;;;;;;5051121;28;20100;-79
2022/06/04 06:24:09;;;;;;;12.75;5.85;;;13.20;99.90;;;;;;5051392;28;20025;-80
2022/06/04 06:26:43;;;;;;;17.23;6.85;;;13.20;99.90;;;;;;5051352;28;20028;-80
2022/06/04 06:29:09;;;;;;;11.85;5.95;;;13.20;99.90;;;;;;5051029;28;20558;-80
2022/06/04 06:31:35;;;;;;;16.77;7.05;;;13.20;99.90;;;;;;5051250;28;20024;-80
2022/06/04 06:34:01;;;;;;;19.85;5.88;;;13.20;99.90;;;;;;5051205;28;20394;-80
2022/06/04 06:36:28;;;;;;;19.17;6.20;;;13.30;99.90;;;;;;5051564;28;20172;-80
2022/06/04 06:38:54;;;;;;;13.48;6.75;;;13.30;99.90;;;;;;5033002;28;20021;-81
2022/06/04 06:41:23;;;;;;;15.98;5.97;;;13.30;99.90;;;;;;5051140;28;20025;-81
2022/06/04 06:43:50;;;;;;;14.15;6.57;;;13.30;99.90;;;;;;5051024;28;20017;-81
2022/06/04 06:46:23;;;;;;;8.63;5.82;;;13.40;99.90;;;;;;5051013;28;20378;-80
2022/06/04 06:48:55;;;;;;;15.82;6.68;;;13.40;99.90;;;;;;5050945;28;20036;-80
2022/06/04 06:51:28;;;;;;;15.25;5.97;;;13.50;99.90;;;;;;5050683;28;20056;-81
2022/06/04 06:53:55;;;;;;;12.95;5.30;;;13.50;99.90;;;;;;5051062;28;20017;-81
2022/06/04 06:56:28;;;;;;;15.57;6.00;;;13.60;99.90;;;;;;5050727;28;20029;-81
2022/06/04 06:58:55;;;;;;;10.10;5.22;;;13.60;99.90;;;;;;5053184;28;20024;-80
2022/06/04 07:01:21;;;;;;;9.35;6.00;;;13.40;99.90;;;;;;5054415;28;20016;-81
2022/06/04 07:03:48;;;;;;;14.52;5.75;;;13.40;99.90;;;;;;5054397;28;20151;-80
2022/06/04 07:06:14;;;;;;;21.38;6.55;;;13.50;99.90;;;;;;5053998;28;20028;-80
2022/06/04 07:08:42;;;;;;;10.88;5.68;;;13.50;99.90;;;;;;5053918;28;20094;-80
2022/06/04 07:11:08;;;;;;;13.48;5.97;;;13.50;99.90;;;;;;5054275;28;20036;-79
2022/06/04 07:13:34;;;;;;;12.02;5.97;;;13.50;99.90;;;;;;5054277;28;20060;-79
2022/06/04 07:16:00;;;;;;;10.48;6.43;;;13.60;99.90;;;;;;5053458;28;20053;-79
2022/06/04 07:18:26;;;;;;;15.57;7.43;;;13.60;99.90;;;;;;5054248;28;20382;-78
2022/06/04 07:20:52;;;;;;;12.63;6.88;;;13.60;99.90;;;;;;5054035;28;20035;-80
2022/06/04 07:23:18;;;;;;;11.55;5.82;;;13.80;99.90;;;;;;5053679;28;20017;-79
2022/06/04 07:25:45;;;;;;;11.50;6.95;;;13.90;99.90;;;;;;5053689;28;20025;-79
2022/06/04 07:28:14;;;;;;;16.27;6.43;;;14.20;99.90;;;;;;5053794;28;20470;-79
2022/06/04 07:30:40;;;;;;;10.52;6.15;;;14.30;99.90;;;;;;5053971;28;20029;-79
2022/06/04 07:33:06;;;;;;;12.20;5.55;;;14.50;99.90;;;;;;5053969;28;20025;-79
2022/06/04 07:35:32;;;;;;;16.83;6.50;;;14.70;99.90;;;;;;5053942;28;20094;-79
2022/06/04 07:37:58;;;;;;;11.57;5.63;;;15.00;99.90;;;;;;5086100;23;20105;-92
2022/06/04 07:40:24;;;;;;;9.18;4.65;;;15.10;99.90;;;;;;5077094;28;20107;-90
2022/06/04 07:42:50;;;;;;;9.85;4.68;;;15.00;99.90;;;;;;5061227;28;20548;-95
2022/06/04 07:45:16;;;;;;;11.00;5.07;;;14.90;99.90;;;;;;5062030;28;20113;-94
2022/06/04 07:47:44;;;;;;;8.23;4.85;;;15.00;99.90;;;;;;5065370;28;20254;-95
2022/06/04 07:50:12;;;;;;;11.15;4.45;;;15.20;99.90;;;;;;5063240;28;20029;-94
2022/06/04 07:52:39;;;;;;;15.68;4.50;;;15.20;99.90;;;;;;5064754;28;20074;-93
2022/06/04 07:55:07;;;;;;;8.18;4.50;;;15.40;99.90;;;;;;5062846;28;20030;-92
2022/06/04 07:57:37;;;;;;;15.85;6.10;;;15.80;99.90;;;;;;5059399;28;20115;-94
2022/06/04 08:00:05;;;;;;;5.80;4.00;;;16.20;99.90;;;;;;5060050;28;20039;-93
2022/06/04 08:02:30;;;;;;;12.23;4.22;;;16.60;99.90;;;;;;5058680;28;20028;-93
2022/06/04 08:04:56;;;;;;;6.28;4.40;;;16.90;99.90;;;;;;5059791;28;20027;-93
2022/06/04 08:07:23;;;;;;;8.00;3.33;;;17.30;99.90;;;;;;5061154;28;20401;-93
2022/06/04 08:09:49;;;;;;;6.45;2.95;;;17.70;99.90;;;;;;5058147;28;20028;-89
2022/06/04 08:12:18;;;;;;;9.25;2.90;;;18.20;99.90;;;;;;5059391;28;20025;-92
2022/06/04 08:14:46;;;;;;;11.88;3.40;;;18.10;99.90;;;;;;5058290;28;20431;-94
2022/06/04 08:17:12;;;;;;;8.93;2.75;;;18.20;99.90;;;;;;5058027;28;20016;-92
2022/06/04 08:19:39;;;;;;;9.00;3.80;;;18.30;99.90;;;;;;5060086;28;20024;-95
2022/06/04 08:22:06;;;;;;;9.43;2.95;;;18.20;99.90;;;;;;5077048;28;20050;-93
2022/06/04 08:24:32;;;;;;;7.22;2.92;;;18.40;99.90;;;;;;5059377;28;20035;-93
2022/06/04 08:26:59;;;;;;;4.88;3.15;;;18.20;99.90;;;;;;5057722;28;20020;-93
2022/06/04 08:29:31;;;;;;;10.32;3.47;;;18.30;99.90;;;;;;5057868;28;20101;-94
2022/06/04 08:31:58;;;;;;;7.03;3.20;;;18.40;99.90;;;;;;5058239;28;20397;-95
2022/06/04 08:34:23;;;;;;;7.57;3.55;;;18.70;99.90;;;;;;5057952;28;20032;-93
2022/06/04 08:36:50;;;;;;;10.00;3.22;;;18.80;99.90;;;;;;5057273;28;20044;-93
2022/06/04 08:39:16;;;;;;;11.55;3.20;;;19.40;99.90;;;;;;5057516;28;20389;-94
2022/06/04 08:42:11;;;;;;;5.95;2.95;;;19.90;99.90;;;;;;5057929;28;20031;-93
2022/06/04 08:44:43;;;;;;;9.50;2.80;;;19.70;99.90;;;;;;5003334;28;20121;-93
2022/06/04 08:47:23;;;;;;;8.18;2.80;;;20.50;99.90;;;;;;5057204;28;20024;-93
2022/06/04 08:49:55;;;;;;;7.60;3.25;;;20.90;99.90;;;;;;5056659;28;20416;-93
2022/06/04 08:52:35;;;;;;;9.13;3.28;;;21.20;99.90;;;;;;5056696;28;20021;-94
2022/06/04 08:58:30;;;;;;;11.75;3.45;;;20.90;99.90;;;;;;5074695;28;20055;-91
2022/06/04 09:01:31;;;;;;;8.30;2.65;;;20.80;99.90;;;;;;5035972;28;20040;-91
2022/06/04 09:04:12;;;;;;;8.65;2.58;;;21.60;99.90;;;;;;5052399;28;20040;-91
2022/06/04 09:07:15;;;;;;;4.82;2.45;;;21.10;99.90;;;;;;5056433;28;20028;-90
2022/06/04 09:09:46;;;;;;;10.82;2.70;;;20.70;99.90;;;;;;5056494;28;20037;-92
2022/06/04 09:12:18;;;;;;;9.02;3.45;;;19.70;99.90;;;;;;5056390;28;20021;-92
2022/06/04 09:14:51;;;;;;;8.48;3.25;;;19.40;99.90;;;;;;5056531;28;20031;-92
2022/06/04 09:17:29;;;;;;;8.52;3.30;;;19.40;99.90;;;;;;5056112;28;20025;-91
2022/06/04 09:19:58;;;;;;;9.57;3.30;;;19.50;99.90;;;;;;5055625;28;20074;-90
2022/06/04 09:22:35;;;;;;;5.28;3.08;;;19.20;99.90;;;;;;5055548;28;20024;-90
2022/06/04 09:25:01;;;;;;;8.43;3.80;;;19.60;99.90;;;;;;5056223;28;20078;-89
2022/06/04 09:27:42;;;;;;;9.82;3.13;;;19.80;99.90;;;;;;5055524;28;20024;-90
2022/06/04 09:30:47;;;;;;;5.55;2.78;;;19.90;99.90;;;;;;5056277;28;20036;-91
2022/06/04 09:33:28;;;;;;;11.60;3.63;;;19.90;99.90;;;;;;5032086;28;20028;-91
2022/06/04 09:36:01;;;;;;;13.13;3.47;;;19.80;99.90;;;;;;5055594;28;20020;-90
2022/06/04 09:38:32;;;;;;;7.88;2.92;;;20.30;99.90;;;;;;5055015;28;20111;-89
2022/06/04 09:41:00;;;;;;;;;;;20.60;99.90;;;;;;5055930;28;20029;-90
2022/06/04 09:43:26;;;;;;;6.47;3.65;;;20.20;99.90;;;;;;5055661;28;19908;-87
2022/06/04 09:46:04;;;;;;;9.75;2.80;;;20.20;99.90;;;;;;5055464;28;20428;-89
2022/06/04 09:48:37;;;;;;;6.70;3.42;;;19.60;99.90;;;;;;5055231;28;20098;-89
2022/06/04 09:51:16;;;;;;;10.38;2.75;;;19.70;99.90;;;;;;5055578;28;20489;-88
2022/06/04 09:53:45;;;;;;;10.73;3.30;;;20.50;99.90;;;;;;5054892;28;20046;-88
2022/06/04 09:56:26;;;;;;;7.05;2.63;;;21.90;99.90;;;;;;5054962;28;20025;-89
2022/06/04 09:58:52;;;;;;;8.83;3.07;;;23.00;99.90;;;;;;5055007;28;20088;-88
2022/06/04 10:01:18;;;;;;;7.03;2.90;;;23.10;96.40;;;;;;5054977;28;20055;-87
2022/06/04 10:03:56;;;;;;;8.73;2.95;;;22.80;92.90;;;;;;5055280;28;20059;-87
2022/06/04 10:06:25;;;;;;;7.85;2.85;;;23.30;92.60;;;;;;5055088;28;20028;-89
2022/06/04 10:11:52;;;;;;;9.15;2.58;;;21.90;94.80;;;;;;5072909;28;20496;-88
2022/06/04 10:14:39;;;;;;;8.60;2.75;;;21.10;99.90;;;;;;5055301;28;20465;-89
2022/06/04 10:17:17;;;;;;;9.32;3.85;;;20.10;99.90;;;;;;5054605;28;20028;-87
2022/06/04 10:19:53;;;;;;;6.00;2.78;;;20.60;99.90;;;;;;5054475;28;20020;-88
2022/06/04 10:22:20;;;;;;;7.53;2.60;;;20.90;99.90;;;;;;5054424;28;20075;-87
2022/06/04 10:24:52;;;;;;;10.70;2.75;;;21.80;99.90;;;;;;5072172;28;20051;-87
2022/06/04 10:27:20;;;;;;;;;;;22.00;98.20;;;;;;5054640;28;20090;-88
2022/06/04 10:29:57;;;;;;;5.78;2.95;;;21.70;99.90;;;;;;5054599;28;19982;-87
2022/06/04 10:32:42;;;;;;;7.72;3.05;;;21.10;99.90;;;;;;5056117;28;20043;-89
2022/06/04 10:35:28;;;;;;;10.98;3.22;;;21.50;99.90;;;;;;5058885;28;20056;-87
2022/06/04 10:38:16;;;;;;;5.40;2.47;;;21.10;99.00;;;;;;5054575;23;20041;-84
2022/06/04 10:41:02;;;;;;;6.82;3.10;;;22.00;99.10;;;;;;5035225;28;20541;-84
2022/06/04 10:43:30;;;;;;;7.18;2.85;;;22.40;95.30;;;;;;5035063;28;20036;-83
2022/06/04 10:46:23;;;;;;;6.72;2.83;;;23.20;93.20;;;;;;5034876;28;20382;-85
2022/06/04 10:49:07;;;;;;;10.15;3.17;;;23.70;80.70;;;;;;5014840;28;20033;-84
2022/06/04 10:51:48;;;;;;;6.63;2.90;;;23.30;87.20;;;;;;5015055;28;20137;-85
2022/06/04 10:54:28;;;;;;;5.75;2.50;;;22.50;92.00;;;;;;5014759;28;20057;-83
2022/06/04 10:57:15;;;;;;;9.85;3.65;;;22.40;93.00;;;;;;5014843;28;20022;-84
2022/06/04 10:59:54;;;;;;;12.18;3.20;;;21.70;97.60;;;;;;5014967;28;20430;-83
2022/06/04 11:02:46;;;;;;;5.05;3.47;;;22.50;96.80;;;;;;5015017;28;20022;-84
2022/06/04 11:05:17;;;;;;;7.75;2.92;;;22.90;91.60;;;;;;5015227;28;20048;-82
2022/06/04 11:07:54;;;;;;;5.70;2.40;;;23.90;80.00;;;;;;5014691;28;20025;-83
2022/06/04 11:10:35;;;;;;;6.15;3.50;;;24.00;76.40;;;;;;4997200;28;20049;-83
2022/06/04 11:13:16;;;;;;;6.63;3.13;;;23.00;80.80;;;;;;5014794;28;20029;-83
2022/06/04 11:16:00;;;;;;;7.53;2.92;;;23.20;84.20;;;;;;5015045;28;20022;-84
2022/06/04 11:18:38;;;;;;;10.95;2.80;;;22.40;83.10;;;;;;5013437;28;20061;-83
2022/06/04 11:21:20;;;;;;;12.00;3.15;;;22.40;88.30;;;;;;5014547;28;20033;-83
2022/06/04 11:24:15;;;;;;;6.47;2.60;;;23.10;84.10;;;;;;5014409;28;20113;-84
2022/06/04 11:26:50;;;;;;;8.32;2.20;;;25.00;78.30;;;;;;5008878;28;20041;-83
2022/06/04 11:29:17;;;;;;;5.10;2.33;;;25.90;70.60;;;;;;5012873;28;20033;-83
2022/06/04 11:31:48;;;;;;;7.30;2.50;;;27.20;69.60;;;;;;5014360;28;20434;-83
2022/06/04 11:34:27;;;;;;;6.93;3.53;;;27.80;66.00;;;;;;5014481;28;20471;-83
2022/06/04 11:37:24;;;;;;;10.85;3.05;;;26.10;62.90;;;;;;5014597;28;20494;-84
2022/06/04 11:39:58;;;;;;;7.70;3.05;;;24.60;67.60;;;;;;5014393;28;20018;-83
2022/06/04 11:42:32;;;;;;;8.88;2.60;;;25.20;68.00;;;;;;5014262;28;20390;-84
2022/06/04 11:45:26;;;;;;;5.13;2.65;;;24.70;71.10;;;;;;5013466;28;20374;-84
2022/06/04 11:48:07;;;;;;;8.63;3.08;;;26.40;70.60;;;;;;4996562;28;20022;-83
2022/06/04 11:50:46;;;;;;;3.83;1.88;;;27.90;64.10;;;;;;5013852;28;20179;-83
2022/06/04 11:53:30;;;;;;;4.78;2.22;;;26.90;63.00;;;;;;5014025;28;20498;-84
2022/06/04 11:55:57;;;;;;;11.27;2.97;;;28.30;59.70;;;;;;5013855;28;20034;-82
2022/06/04 11:58:29;;;;;;;4.97;1.90;;;28.50;56.80;;;;;;5013669;28;20033;-83
2022/06/04 12:01:01;;;;;;;7.55;2.72;;;29.20;55.10;;;;;;5014029;28;20029;-84
2022/06/04 12:03:26;;;;;;;;;;;29.60;61.00;;;;;;5014390;28;20022;-83
2022/06/04 12:06:22;;;;;;;3.83;1.80;;;29.10;51.40;;;;;;5013825;28;20402;-84
2022/06/04 12:09:01;;;;;;;7.38;2.45;;;28.90;52.50;;;;;;5011579;28;20049;-83
2022/06/04 12:11:38;;;;;;;5.40;2.20;;;27.70;54.30;;;;;;5013606;28;20390;-82
2022/06/04 12:14:42;;;;;;;6.53;2.72;;;27.60;57.90;;;;;;5013800;28;20018;-83
2022/06/04 12:17:19;;;;;;;5.07;1.92;;;28.10;56.40;;;;;;5013518;28;20516;-85
2022/06/04 12:25:42;;;;;;;3.60;1.80;;;30.40;53.70;;;;;;5013445;28;20052;-82
2022/06/04 12:28:25;;;;;;;5.32;1.73;;;31.90;49.10;;;;;;5013158;28;20032;-82
2022/06/04 12:30:50;;;;;;;3.80;2.00;;;32.80;47.10;;;;;;5013343;28;20034;-83
2022/06/04 12:33:25;;;;;;;8.77;2.25;;;32.40;45.00;;;;;;5013303;28;20037;-84
2022/06/04 12:36:25;;;;;;;2.92;1.95;;;32.20;44.30;;;;;;5013398;28;20052;-83
2022/06/04 12:39:00;;;;;;;3.72;2.03;;;31.00;46.80;;;;;;5012840;28;20037;-82
2022/06/04 12:41:44;;;;;;;7.13;2.58;;;29.50;47.40;;;;;;5013263;28;20037;-83
2022/06/04 12:44:32;;;;;;;4.57;2.13;;;30.40;53.10;;;;;;4995543;28;20044;-84
2022/06/04 12:47:29;;;;;;;4.75;1.83;;;31.50;47.80;;;;;;5012722;28;20075;-82
2022/06/04 12:50:22;;;;;;;4.28;1.92;;;30.80;45.90;;;;;;5012779;28;20045;-84
2022/06/04 12:52:51;;;;;;;4.15;1.98;;;31.20;47.30;;;;;;5006719;28;20045;-82
2022/06/04 12:55:25;;;;;;;9.10;2.30;;;31.80;48.00;;;;;;5012047;28;20095;-83
2022/06/04 12:57:54;;;;;;;7.95;1.90;;;32.00;44.60;;;;;;4995209;28;20048;-83
2022/06/04 13:00:41;;;;;;;5.10;1.90;;;32.30;46.80;;;;;;5012733;28;20060;-85
2022/06/04 13:03:07;;;;;;;4.03;1.77;;;30.60;46.60;;;;;;5012794;28;20022;-83
2022/06/04 13:05:35;;;;;;;5.95;1.98;;;29.60;47.30;;;;;;5012641;28;20081;-82
2022/06/04 13:08:20;;;;;;;5.05;2.30;;;31.60;46.90;;;;;;5012328;28;20152;-83
2022/06/04 13:11:16;;;;;;;5.38;1.80;;;32.20;43.20;;;;;;5012517;28;20042;-82
2022/06/04 13:14:01;;;;;;;3.70;2.10;;;30.90;46.30;;;;;;5012453;28;20022;-83
2022/06/04 13:16:29;;;;;;;8.57;2.63;;;30.50;48.00;;;;;;5012280;28;20025;-82
2022/06/04 13:19:07;;;;;;;4.82;2.42;;;30.90;45.20;;;;;;4994656;28;20471;-83
2022/06/04 13:21:39;;;;;;;5.53;1.98;;;29.30;45.40;;;;;;5012340;28;20029;-83
2022/06/04 13:24:16;;;;;;;7.57;1.92;;;31.00;47.70;;;;;;5012090;28;20026;-83
2022/06/04 13:27:10;;;;;;;5.97;1.98;;;31.50;51.00;;;;;;5012234;28;20026;-82
2022/06/04 13:29:37;;;;;;;5.22;2.10;;;30.80;45.00;;;;;;5012174;28;20036;-83
2022/06/04 13:32:19;;;;;;;3.85;2.10;;;30.00;46.40;;;;;;5011984;28;20078;-84
2022/06/04 13:34:46;;;;;;;4.03;1.67;;;30.30;45.70;;;;;;5011948;28;20382;-83